createdAt,value
2019-02-17T00:00:41.569Z,-413.55
2019-02-17T00:01:41.834Z,-409.67
2019-02-17T00:02:42.020Z,-410.61
2019-02-17T00:03:42.250Z,-411.59
2019-02-17T00:04:42.471Z,-410.66
2019-02-17T00:05:42.712Z,-409.85
2019-02-17T00:06:42.916Z,-407.22
2019-02-17T00:07:43.153Z,-409.60
2019-02-17T00:08:43.393Z,-410.63
2019-02-17T00:09:43.640Z,-410.78
2019-02-17T00:10:44.206Z,-410.38
2019-02-17T00:11:44.401Z,-408.68
2019-02-17T00:12:44.640Z,-410.30
2019-02-17T00:13:44.888Z,-409.10
2019-02-17T00:14:45.111Z,-410.70
2019-02-17T00:15:45.362Z,-408.92
2019-02-17T00:16:45.581Z,-410.04
2019-02-17T00:17:45.844Z,-411.73
2019-02-17T00:18:46.146Z,-411.18
2019-02-17T00:19:46.296Z,-407.70
2019-02-17T00:20:46.779Z,-408.62
2019-02-17T00:21:46.763Z,-410.23
2019-02-17T00:22:47.027Z,-409.76
2019-02-17T00:23:47.242Z,-411.22
2019-02-17T00:24:47.479Z,-409.34
2019-02-17T00:25:47.748Z,-408.47
2019-02-17T00:26:48.054Z,-408.78
2019-02-17T00:27:48.207Z,-410.61
2019-02-17T00:28:48.440Z,-409.89
2019-02-17T00:29:48.680Z,-410.07
2019-02-17T00:30:48.927Z,-408.50
2019-02-17T00:31:49.154Z,-413.01
2019-02-17T00:32:49.421Z,-410.35
2019-02-17T00:33:49.652Z,-411.54
2019-02-17T00:34:49.923Z,-412.32
2019-02-17T00:35:50.090Z,-413.00
2019-02-17T00:36:50.329Z,-411.96
2019-02-17T00:37:50.587Z,-411.59
2019-02-17T00:38:50.825Z,-410.47
2019-02-17T00:39:51.029Z,-411.62
2019-02-17T00:40:51.290Z,-410.92
2019-02-17T00:41:51.519Z,-411.31
2019-02-17T00:42:51.823Z,-410.28
2019-02-17T00:43:51.924Z,-411.07
2019-02-17T00:44:52.155Z,-410.03
2019-02-17T00:45:52.393Z,-409.58
2019-02-17T00:46:52.615Z,-410.48
2019-02-17T00:47:52.838Z,-412.68
2019-02-17T00:48:53.122Z,-411.96
2019-02-17T00:49:53.308Z,-409.58
2019-02-17T00:50:53.829Z,-409.16
2019-02-17T00:51:53.883Z,-409.16
2019-02-17T00:52:54.092Z,-410.37
2019-02-17T00:53:54.362Z,-409.69
2019-02-17T00:54:54.565Z,-410.72
2019-02-17T00:55:54.809Z,-411.66
2019-02-17T00:56:55.044Z,-411.06
2019-02-17T00:57:55.301Z,-412.54
2019-02-17T00:58:55.564Z,-412.01
2019-02-17T00:59:55.863Z,-410.52
2019-02-17T01:00:57.392Z,-407.84
2019-02-17T01:01:56.244Z,-409.23
2019-02-17T01:02:56.481Z,-410.51
2019-02-17T01:03:56.750Z,-409.21
2019-02-17T01:04:56.945Z,-435.79
2019-02-17T01:05:57.188Z,-436.06
2019-02-17T01:06:57.409Z,-436.10
2019-02-17T01:07:57.775Z,-436.73
2019-02-17T01:08:57.962Z,-435.63
2019-02-17T01:09:58.146Z,-435.53
2019-02-17T01:10:58.379Z,-434.99
2019-02-17T01:11:58.622Z,-437.26
2019-02-17T01:12:58.877Z,-434.71
2019-02-17T01:13:59.156Z,-438.03
2019-02-17T01:14:59.351Z,-437.79
2019-02-17T01:15:59.635Z,-436.45
2019-02-17T01:16:59.826Z,-433.00
2019-02-17T01:18:00.039Z,-434.74
2019-02-17T01:19:00.355Z,-435.38
2019-02-17T01:20:00.524Z,-436.48
2019-02-17T01:21:00.760Z,-435.78
2019-02-17T01:22:01.014Z,-434.06
2019-02-17T01:23:01.235Z,-434.74
2019-02-17T01:24:01.521Z,-435.96
2019-02-17T01:25:01.698Z,-435.99
2019-02-17T01:26:01.936Z,-436.09
2019-02-17T01:27:02.197Z,-435.09
2019-02-17T01:28:02.433Z,-436.96
2019-02-17T01:29:02.765Z,-435.05
2019-02-17T01:30:02.898Z,-436.34
2019-02-17T01:31:03.142Z,-437.41
2019-02-17T01:32:03.418Z,-434.61
2019-02-17T01:33:03.695Z,-437.00
2019-02-17T01:34:03.883Z,-435.82
2019-02-17T01:35:04.088Z,-434.95
2019-02-17T01:36:04.337Z,-435.45
2019-02-17T01:37:04.588Z,-436.53
2019-02-17T01:38:04.791Z,-437.10
2019-02-17T01:39:05.129Z,-435.37
2019-02-17T01:40:05.298Z,-437.49
2019-02-17T01:41:05.633Z,-435.92
2019-02-17T01:42:05.772Z,-436.67
2019-02-17T01:43:05.986Z,-437.03
2019-02-17T01:44:06.565Z,-435.44
2019-02-17T01:45:06.473Z,-435.26
2019-02-17T01:46:06.712Z,-435.94
2019-02-17T01:47:06.958Z,-436.11
2019-02-17T01:48:07.186Z,-434.85
2019-02-17T01:49:07.527Z,-436.66
2019-02-17T01:50:07.642Z,-438.27
2019-02-17T01:51:07.871Z,-433.68
2019-02-17T01:52:08.140Z,-435.33
2019-02-17T01:53:08.353Z,-435.18
2019-02-17T01:54:08.666Z,-434.43
2019-02-17T01:55:08.842Z,-436.65
2019-02-17T01:56:09.075Z,-434.66
2019-02-17T01:57:09.351Z,-436.09
2019-02-17T01:58:09.522Z,-432.24
2019-02-17T01:59:09.830Z,-434.13
2019-02-17T02:00:10.285Z,-435.18
2019-02-17T02:01:10.258Z,-433.23
2019-02-17T02:02:10.737Z,-435.42
2019-02-17T02:03:10.732Z,-435.52
2019-02-17T02:04:10.964Z,-434.81
2019-02-17T02:05:11.251Z,-412.38
2019-02-17T02:06:11.466Z,-433.46
2019-02-17T02:07:11.694Z,-435.09
2019-02-17T02:08:11.921Z,-432.59
2019-02-17T02:09:12.178Z,-436.01
2019-02-17T02:10:12.402Z,-436.90
2019-02-17T02:11:12.626Z,-438.42
2019-02-17T02:12:12.865Z,-437.47
2019-02-17T02:13:13.130Z,-438.52
2019-02-17T02:14:13.461Z,-435.94
2019-02-17T02:15:13.629Z,-437.51
2019-02-17T02:16:13.849Z,-435.56
2019-02-17T02:17:14.089Z,-434.95
2019-02-17T02:18:14.311Z,-432.69
2019-02-17T02:19:14.577Z,-435.28
2019-02-17T02:20:14.836Z,-435.53
2019-02-17T02:21:15.038Z,-435.37
2019-02-17T02:22:15.425Z,-434.20
2019-02-17T02:23:15.516Z,-437.02
2019-02-17T02:24:15.745Z,-436.37
2019-02-17T02:25:16.019Z,-437.72
2019-02-17T02:26:16.234Z,-437.35
2019-02-17T02:27:16.473Z,-434.61
2019-02-17T02:28:16.713Z,-435.79
2019-02-17T02:29:16.928Z,-437.43
2019-02-17T02:30:17.259Z,-439.09
2019-02-17T02:31:17.397Z,-439.21
2019-02-17T02:32:17.713Z,-439.59
2019-02-17T02:33:17.865Z,-438.29
2019-02-17T02:34:18.090Z,-436.55
2019-02-17T02:35:18.348Z,-435.96
2019-02-17T02:36:18.553Z,-436.46
2019-02-17T02:37:18.821Z,-437.35
2019-02-17T02:38:19.100Z,-439.59
2019-02-17T02:39:19.282Z,-438.40
2019-02-17T02:40:19.562Z,-436.99
2019-02-17T02:41:19.754Z,-434.34
2019-02-17T02:42:19.992Z,-437.98
2019-02-17T02:43:20.231Z,-438.91
2019-02-17T02:44:20.483Z,-436.83
2019-02-17T02:45:20.788Z,-438.05
2019-02-17T02:46:20.994Z,-437.40
2019-02-17T02:47:21.280Z,-439.02
2019-02-17T02:48:21.441Z,-439.14
2019-02-17T02:49:21.677Z,-435.61
2019-02-17T02:50:21.957Z,-438.26
2019-02-17T02:51:22.151Z,-439.38
2019-02-17T02:52:22.408Z,-439.60
2019-02-17T02:53:22.611Z,-439.32
2019-02-17T02:54:22.877Z,-436.64
2019-02-17T02:55:23.279Z,-437.44
2019-02-17T02:56:23.350Z,-438.66
2019-02-17T02:57:23.607Z,-437.58
2019-02-17T02:58:23.809Z,-438.98
2019-02-17T02:59:24.058Z,-437.45
2019-02-17T03:00:24.322Z,-437.99
2019-02-17T03:01:24.531Z,-436.71
2019-02-17T03:02:24.787Z,-441.29
2019-02-17T03:03:25.110Z,-437.88
2019-02-17T03:04:25.235Z,-435.54
2019-02-17T03:05:25.528Z,-432.86
2019-02-17T03:06:25.702Z,-433.09
2019-02-17T03:07:25.969Z,-437.30
2019-02-17T03:08:26.188Z,-438.07
2019-02-17T03:09:26.410Z,-440.72
2019-02-17T03:10:26.707Z,-436.48
2019-02-17T03:11:26.952Z,-438.71
2019-02-17T03:12:27.136Z,-437.26
2019-02-17T03:13:27.383Z,-438.00
2019-02-17T03:14:27.620Z,-438.15
2019-02-17T03:15:27.884Z,-440.51
2019-02-17T03:16:28.097Z,-436.34
2019-02-17T03:17:28.347Z,-437.65
2019-02-17T03:18:28.594Z,-437.16
2019-02-17T03:19:28.873Z,-440.29
2019-02-17T03:20:29.113Z,-437.30
2019-02-17T03:21:29.287Z,-437.50
2019-02-17T03:22:29.548Z,-439.32
2019-02-17T03:23:29.803Z,-436.79
2019-02-17T03:24:30.037Z,-440.47
2019-02-17T03:25:30.313Z,-438.74
2019-02-17T03:26:30.510Z,-437.48
2019-02-17T03:27:30.772Z,-438.47
2019-02-17T03:28:31.109Z,-436.78
2019-02-17T03:29:31.226Z,-436.79
2019-02-17T03:30:31.489Z,-439.97
2019-02-17T03:31:31.718Z,-438.22
2019-02-17T03:32:31.926Z,-437.26
2019-02-17T03:33:32.194Z,-439.08
2019-02-17T03:34:32.415Z,-439.25
2019-02-17T03:35:32.669Z,-437.00
2019-02-17T03:36:33.021Z,-436.71
2019-02-17T03:37:33.102Z,-439.17
2019-02-17T03:38:33.372Z,-439.98
2019-02-17T03:39:33.593Z,-437.84
2019-02-17T03:40:33.875Z,-441.39
2019-02-17T03:41:34.308Z,-438.75
2019-02-17T03:42:34.313Z,-438.63
2019-02-17T03:43:34.555Z,-441.69
2019-02-17T03:44:34.834Z,-437.81
2019-02-17T03:45:35.034Z,-439.04
2019-02-17T03:46:35.262Z,-437.88
2019-02-17T03:47:35.490Z,-441.29
2019-02-17T03:48:35.745Z,-438.25
2019-02-17T03:49:35.950Z,-442.07
2019-02-17T03:50:36.231Z,-439.95
2019-02-17T03:51:36.451Z,-441.77
2019-02-17T03:52:36.733Z,-442.33
2019-02-17T03:53:36.921Z,-442.63
2019-02-17T03:54:37.127Z,-441.62
2019-02-17T03:55:37.388Z,-441.15
2019-02-17T03:56:37.625Z,-441.74
2019-02-17T03:57:37.852Z,-440.90
2019-02-17T03:58:38.111Z,-441.50
2019-02-17T03:59:38.331Z,-438.93
2019-02-17T04:00:38.621Z,-441.10
2019-02-17T04:01:38.850Z,-443.45
2019-02-17T04:02:39.062Z,-441.70
2019-02-17T04:03:39.303Z,-443.27
2019-02-17T04:04:39.519Z,-442.78
2019-02-17T04:05:39.772Z,-442.54
2019-02-17T04:06:39.992Z,-442.99
2019-02-17T04:07:40.239Z,-440.69
2019-02-17T04:08:40.506Z,-443.38
2019-02-17T04:09:40.817Z,-442.15
2019-02-17T04:10:40.945Z,-442.26
2019-02-17T04:11:41.178Z,-440.80
2019-02-17T04:12:41.443Z,-440.43
2019-02-17T04:13:41.684Z,-440.64
2019-02-17T04:14:41.908Z,-441.81
2019-02-17T04:15:42.166Z,-443.79
2019-02-17T04:16:42.368Z,-442.76
2019-02-17T04:17:42.664Z,-443.85
2019-02-17T04:18:42.872Z,-438.97
2019-02-17T04:19:43.089Z,-441.44
2019-02-17T04:20:43.342Z,-442.40
2019-02-17T04:21:43.557Z,-442.42
2019-02-17T04:22:43.814Z,-441.44
2019-02-17T04:23:44.072Z,-441.41
2019-02-17T04:24:44.283Z,-442.82
2019-02-17T04:25:44.589Z,-442.83
2019-02-17T04:26:44.749Z,-441.55
2019-02-17T04:27:45.002Z,-443.27
2019-02-17T04:28:45.278Z,-439.23
2019-02-17T04:29:45.494Z,-440.25
2019-02-17T04:30:45.738Z,-440.18
2019-02-17T04:31:46.022Z,-441.58
2019-02-17T04:32:46.204Z,-440.18
2019-02-17T04:33:46.578Z,-441.30
2019-02-17T04:34:46.663Z,-443.50
2019-02-17T04:35:46.911Z,-439.88
2019-02-17T04:36:47.174Z,-438.92
2019-02-17T04:37:47.379Z,-441.01
2019-02-17T04:38:47.663Z,-441.39
2019-02-17T04:39:47.853Z,-440.12
2019-02-17T04:40:48.100Z,-438.54
2019-02-17T04:41:48.398Z,-440.31
2019-02-17T04:42:48.634Z,-442.54
2019-02-17T04:43:48.839Z,-441.62
2019-02-17T04:44:49.039Z,-441.50
2019-02-17T04:45:49.289Z,-440.99
2019-02-17T04:46:49.549Z,-440.00
2019-02-17T04:47:49.769Z,-439.89
2019-02-17T04:48:50.011Z,-441.43
2019-02-17T04:49:50.249Z,-443.09
2019-02-17T04:50:50.630Z,-439.08
2019-02-17T04:51:50.754Z,-440.62
2019-02-17T04:52:51.110Z,-439.74
2019-02-17T04:53:51.229Z,-440.92
2019-02-17T04:54:51.431Z,-440.26
2019-02-17T04:55:51.667Z,-438.92
2019-02-17T04:56:51.942Z,-441.18
2019-02-17T04:57:52.176Z,-441.39
2019-02-17T04:58:52.530Z,-441.73
2019-02-17T04:59:52.604Z,-442.78
2019-02-17T05:00:52.854Z,-443.00
2019-02-17T05:01:53.124Z,-439.48
2019-02-17T05:02:53.355Z,-439.88
2019-02-17T05:03:53.599Z,-439.86
2019-02-17T05:04:53.817Z,-440.16
2019-02-17T05:05:54.053Z,-439.19
2019-02-17T05:06:54.342Z,-438.70
2019-02-17T05:07:54.532Z,-440.39
2019-02-17T05:08:54.775Z,-439.40
2019-02-17T05:09:54.996Z,-441.36
2019-02-17T05:10:55.235Z,-440.84
2019-02-17T05:11:55.488Z,-438.59
2019-02-17T05:12:55.708Z,-442.57
2019-02-17T05:13:55.968Z,-440.88
2019-02-17T05:14:56.256Z,-440.59
2019-02-17T05:15:56.413Z,-440.68
2019-02-17T05:16:56.684Z,-441.44
2019-02-17T05:17:56.915Z,-440.62
2019-02-17T05:18:57.149Z,-442.10
2019-02-17T05:19:57.401Z,-439.47
2019-02-17T05:20:57.861Z,-441.78
2019-02-17T05:21:57.874Z,-443.87
2019-02-17T05:22:58.105Z,-443.84
2019-02-17T05:23:58.410Z,-442.81
2019-02-17T05:24:58.601Z,-443.60
2019-02-17T05:25:58.834Z,-441.30
2019-02-17T05:26:59.086Z,-443.46
2019-02-17T05:27:59.316Z,-438.58
2019-02-17T05:28:59.552Z,-417.66
2019-02-17T05:29:59.764Z,-417.31
2019-02-17T05:31:00.023Z,-418.60
2019-02-17T05:32:00.412Z,-419.49
2019-02-17T05:33:00.507Z,-420.42
2019-02-17T05:34:00.718Z,-418.64
2019-02-17T05:35:00.981Z,-420.91
2019-02-17T05:36:01.233Z,-418.13
2019-02-17T05:37:01.490Z,-422.62
2019-02-17T05:38:01.736Z,-418.10
2019-02-17T05:39:01.943Z,-420.08
2019-02-17T05:40:02.246Z,-419.37
2019-02-17T05:41:02.411Z,-418.54
2019-02-17T05:42:02.646Z,-417.73
2019-02-17T05:43:02.896Z,-419.64
2019-02-17T05:44:03.122Z,-419.68
2019-02-17T05:45:03.375Z,-419.34
2019-02-17T05:46:03.581Z,-419.55
2019-02-17T05:47:03.853Z,-416.76
2019-02-17T05:48:04.130Z,-418.79
2019-02-17T05:49:04.290Z,-420.09
2019-02-17T05:50:04.562Z,-420.15
2019-02-17T05:51:04.773Z,-420.90
2019-02-17T05:52:05.013Z,-420.14
2019-02-17T05:53:05.251Z,-418.34
2019-02-17T05:54:05.478Z,-443.34
2019-02-17T05:55:05.740Z,-443.93
2019-02-17T05:56:06.025Z,-445.03
2019-02-17T05:57:06.229Z,-441.88
2019-02-17T05:58:06.463Z,-442.38
2019-02-17T05:59:06.691Z,-441.09
2019-02-17T06:00:06.953Z,-444.65
2019-02-17T06:01:07.399Z,-444.80
2019-02-17T06:02:07.431Z,-443.30
2019-02-17T06:03:07.642Z,-443.39
2019-02-17T06:04:07.886Z,-441.43
2019-02-17T06:05:08.267Z,-444.02
2019-02-17T06:06:08.363Z,-444.67
2019-02-17T06:07:08.619Z,-443.24
2019-02-17T06:08:08.831Z,-442.09
2019-02-17T06:09:09.076Z,-444.23
2019-02-17T06:10:09.329Z,-441.52
2019-02-17T06:11:09.663Z,-442.16
2019-02-17T06:12:09.799Z,-442.71
2019-02-17T06:13:10.288Z,-444.28
2019-02-17T06:14:10.258Z,-445.08
2019-02-17T06:15:10.535Z,-444.00
2019-02-17T06:16:10.739Z,-442.96
2019-02-17T06:17:10.992Z,-441.04
2019-02-17T06:18:11.220Z,-443.22
2019-02-17T06:19:11.432Z,-442.19
2019-02-17T06:20:11.717Z,-443.79
2019-02-17T06:21:12.001Z,-443.64
2019-02-17T06:22:12.179Z,-419.04
2019-02-17T06:23:12.403Z,-418.10
2019-02-17T06:24:12.628Z,-419.12
2019-02-17T06:25:12.898Z,-421.65
2019-02-17T06:26:13.116Z,-420.30
2019-02-17T06:27:13.375Z,-422.16
2019-02-17T06:28:13.600Z,-420.27
2019-02-17T06:29:13.859Z,-420.20
2019-02-17T06:30:14.050Z,-420.05
2019-02-17T06:31:14.862Z,-422.20
2019-02-17T06:32:14.527Z,-421.31
2019-02-17T06:33:14.778Z,-421.22
2019-02-17T06:34:15.014Z,-420.45
2019-02-17T06:35:15.268Z,-419.25
2019-02-17T06:36:15.488Z,-418.90
2019-02-17T06:37:15.743Z,-421.82
2019-02-17T06:38:16.079Z,-423.11
2019-02-17T06:39:16.224Z,-418.01
2019-02-17T06:40:16.476Z,-419.35
2019-02-17T06:41:16.690Z,-420.53
2019-02-17T06:42:16.918Z,-418.45
2019-02-17T06:43:17.196Z,-420.36
2019-02-17T06:44:17.406Z,-419.16
2019-02-17T06:45:19.526Z,-418.05
2019-02-17T06:46:17.991Z,-418.29
2019-02-17T06:47:18.105Z,-421.36
2019-02-17T06:48:18.393Z,-420.10
2019-02-17T06:49:18.594Z,-421.44
2019-02-17T06:50:18.860Z,-420.85
2019-02-17T06:51:19.062Z,-422.17
2019-02-17T06:52:19.305Z,-419.81
2019-02-17T06:53:19.553Z,-422.72
2019-02-17T06:54:19.880Z,-419.47
2019-02-17T06:55:20.037Z,-419.87
2019-02-17T06:56:20.252Z,-418.18
2019-02-17T06:57:20.487Z,-419.86
2019-02-17T06:58:20.728Z,-420.41
2019-02-17T06:59:21.213Z,-422.08
2019-02-17T07:00:21.219Z,-422.80
2019-02-17T07:01:24.574Z,-420.46
2019-02-17T07:02:21.736Z,-422.57
2019-02-17T07:03:21.917Z,-422.51
2019-02-17T07:04:22.158Z,-418.03
2019-02-17T07:05:22.437Z,-421.21
2019-02-17T07:06:22.641Z,-421.21
2019-02-17T07:07:22.849Z,-421.33
2019-02-17T07:08:23.126Z,-420.95
2019-02-17T07:09:23.325Z,-420.06
2019-02-17T07:10:23.637Z,-418.25
2019-02-17T07:11:23.793Z,-421.79
2019-02-17T07:12:24.064Z,-421.05
2019-02-17T07:13:24.294Z,-421.94
2019-02-17T07:14:24.520Z,-446.40
2019-02-17T07:15:24.786Z,-443.89
2019-02-17T07:16:24.975Z,-447.63
2019-02-17T07:17:25.231Z,-442.82
2019-02-17T07:18:25.498Z,-442.89
2019-02-17T07:19:25.837Z,-444.30
2019-02-17T07:20:25.962Z,-443.06
2019-02-17T07:21:26.168Z,-444.10
2019-02-17T07:22:26.417Z,-445.35
2019-02-17T07:23:26.670Z,-445.47
2019-02-17T07:24:26.901Z,-445.97
2019-02-17T07:25:30.081Z,-443.36
2019-02-17T07:26:27.371Z,-445.95
2019-02-17T07:27:27.717Z,-446.99
2019-02-17T07:28:27.856Z,-445.21
2019-02-17T07:29:28.094Z,-445.22
2019-02-17T07:30:28.334Z,-447.43
2019-02-17T07:31:34.663Z,-447.21
2019-02-17T07:32:29.782Z,-446.31
2019-02-17T07:33:29.059Z,-446.06
2019-02-17T07:34:29.286Z,-445.20
2019-02-17T07:35:29.563Z,-447.28
2019-02-17T07:36:29.737Z,-446.96
2019-02-17T07:37:33.269Z,-447.88
2019-02-17T07:38:30.234Z,-447.33
2019-02-17T07:39:30.464Z,-446.82
2019-02-17T07:40:30.694Z,-444.44
2019-02-17T07:41:30.947Z,-445.29
2019-02-17T07:42:31.193Z,-445.60
2019-02-17T07:43:31.491Z,-444.01
2019-02-17T07:44:31.656Z,-444.99
2019-02-17T07:45:31.888Z,-441.94
2019-02-17T07:46:32.145Z,-445.17
2019-02-17T07:47:32.377Z,-444.05
2019-02-17T07:48:32.632Z,-444.73
2019-02-17T07:49:32.835Z,-444.23
2019-02-17T07:50:33.093Z,-443.68
2019-02-17T07:51:33.399Z,-442.00
2019-02-17T07:52:34.275Z,-442.38
2019-02-17T07:53:33.837Z,-442.21
2019-02-17T07:54:34.069Z,-442.68
2019-02-17T07:55:34.303Z,-444.28
2019-02-17T07:56:34.571Z,-443.71
2019-02-17T07:57:34.791Z,-443.90
2019-02-17T07:58:35.045Z,-438.80
2019-02-17T07:59:35.320Z,-435.85
2019-02-17T08:00:35.584Z,-443.29
2019-02-17T08:01:44.733Z,-445.22
2019-02-17T08:02:36.975Z,-446.94
2019-02-17T08:03:36.232Z,-446.86
2019-02-17T08:04:36.461Z,-447.05
2019-02-17T08:05:36.675Z,-444.47
2019-02-17T08:06:36.944Z,-446.79
2019-02-17T08:07:37.177Z,-445.87
2019-02-17T08:08:37.561Z,-442.66
2019-02-17T08:09:37.758Z,-445.41
2019-02-17T08:10:37.916Z,-444.65
2019-02-17T08:11:38.189Z,-444.77
2019-02-17T08:12:38.408Z,-446.01
2019-02-17T08:13:38.662Z,-445.64
2019-02-17T08:14:38.894Z,-446.85
2019-02-17T08:15:39.121Z,-448.50
2019-02-17T08:16:39.443Z,-448.64
2019-02-17T08:17:39.582Z,-447.65
2019-02-17T08:18:39.843Z,-447.20
2019-02-17T08:19:40.068Z,-422.27
2019-02-17T08:20:40.304Z,-423.96
2019-02-17T08:21:40.556Z,-424.54
2019-02-17T08:22:40.759Z,-423.13
2019-02-17T08:23:41.032Z,-423.15
2019-02-17T08:24:41.331Z,-423.48
2019-02-17T08:25:41.489Z,-422.64
2019-02-17T08:26:41.743Z,-424.32
2019-02-17T08:27:41.963Z,-421.88
2019-02-17T08:28:42.536Z,-422.41
2019-02-17T08:29:42.492Z,-424.24
2019-02-17T08:30:42.696Z,-420.92
2019-02-17T08:31:42.950Z,-421.60
2019-02-17T08:32:44.026Z,-422.52
2019-02-17T08:33:43.495Z,-424.66
2019-02-17T08:34:43.726Z,-421.49
2019-02-17T08:35:44.171Z,-422.08
2019-02-17T08:36:44.195Z,-422.52
2019-02-17T08:37:44.445Z,-420.59
2019-02-17T08:38:44.670Z,-421.84
2019-02-17T08:39:44.918Z,-422.31
2019-02-17T08:40:45.125Z,-422.76
2019-02-17T08:41:45.532Z,-422.71
2019-02-17T08:42:45.598Z,-422.94
2019-02-17T08:43:45.842Z,-422.73
2019-02-17T08:44:46.117Z,-423.56
2019-02-17T08:45:46.312Z,-423.18
2019-02-17T08:46:46.592Z,-421.47
2019-02-17T08:47:46.807Z,-421.08
2019-02-17T08:48:47.045Z,-424.92
2019-02-17T08:49:47.978Z,-424.14
2019-02-17T08:50:47.536Z,-425.36
2019-02-17T08:51:47.990Z,-422.83
2019-02-17T08:52:48.109Z,-422.71
2019-02-17T08:53:48.250Z,-421.49
2019-02-17T08:54:49.126Z,-422.29
2019-02-17T08:55:48.712Z,-421.76
2019-02-17T08:56:48.969Z,-421.55
2019-02-17T08:57:49.242Z,-424.44
2019-02-17T08:58:49.559Z,-422.12
2019-02-17T08:59:49.717Z,-424.04
2019-02-17T09:00:49.908Z,-425.76
2019-02-17T09:01:50.148Z,-424.56
2019-02-17T09:02:50.369Z,-425.25
2019-02-17T09:03:50.620Z,-422.73
2019-02-17T09:04:50.890Z,-421.65
2019-02-17T09:05:51.170Z,-425.15
2019-02-17T09:06:51.348Z,-422.71
2019-02-17T09:07:51.558Z,-425.41
2019-02-17T09:08:51.798Z,-426.19
2019-02-17T09:09:52.079Z,-425.67
2019-02-17T09:10:52.298Z,-422.64
2019-02-17T09:11:52.562Z,-422.03
2019-02-17T09:12:52.777Z,-422.65
2019-02-17T09:13:53.019Z,-421.84
2019-02-17T09:14:53.386Z,-424.45
2019-02-17T09:15:53.517Z,-423.49
2019-02-17T09:16:53.834Z,-423.71
2019-02-17T09:17:53.966Z,-421.82
2019-02-17T09:18:54.177Z,-423.89
2019-02-17T09:19:54.455Z,-423.37
2019-02-17T09:20:54.684Z,-425.64
2019-02-17T09:21:55.066Z,-423.52
2019-02-17T09:22:55.486Z,-425.58
2019-02-17T09:23:55.355Z,-422.96
2019-02-17T09:24:55.626Z,-421.49
2019-02-17T09:25:55.846Z,-419.30
2019-02-17T09:26:56.115Z,-423.28
2019-02-17T09:27:56.329Z,-411.17
2019-02-17T09:28:56.570Z,-421.42
2019-02-17T09:29:56.807Z,-423.32
2019-02-17T09:30:57.132Z,-420.62
2019-02-17T09:31:59.308Z,-422.50
2019-02-17T09:32:57.522Z,-425.34
2019-02-17T09:33:57.759Z,-425.68
2019-02-17T09:34:58.015Z,-420.97
2019-02-17T09:35:58.223Z,-422.90
2019-02-17T09:36:58.489Z,-421.55
2019-02-17T09:37:58.716Z,-424.19
2019-02-17T09:38:58.981Z,-423.95
2019-02-17T09:39:59.182Z,-424.88
2019-02-17T09:40:59.401Z,-424.78
2019-02-17T09:41:59.663Z,-425.12
2019-02-17T09:42:59.894Z,-423.88
2019-02-17T09:44:00.137Z,-424.39
2019-02-17T09:45:00.387Z,-424.34
2019-02-17T09:46:00.611Z,-426.86
2019-02-17T09:47:00.887Z,-424.24
2019-02-17T09:48:01.128Z,-424.51
2019-02-17T09:49:01.332Z,-424.96
2019-02-17T09:50:01.584Z,-423.84
2019-02-17T09:51:01.815Z,-421.53
2019-02-17T09:52:02.055Z,-421.00
2019-02-17T09:53:02.261Z,-431.80
2019-02-17T09:54:02.514Z,-435.09
2019-02-17T09:55:03.634Z,-436.88
2019-02-17T09:56:03.131Z,-430.74
2019-02-17T09:57:03.235Z,-430.62
2019-02-17T09:58:03.464Z,-431.07
2019-02-17T09:59:03.700Z,-428.58
2019-02-17T10:00:03.953Z,-428.77
2019-02-17T10:01:04.177Z,-428.02
2019-02-17T10:02:04.417Z,-428.27
2019-02-17T10:03:04.646Z,-424.63
2019-02-17T10:04:05.020Z,-429.27
2019-02-17T10:05:05.166Z,-430.28
2019-02-17T10:06:05.401Z,-427.71
2019-02-17T10:07:05.630Z,-422.64
2019-02-17T10:08:05.862Z,-425.18
2019-02-17T10:09:06.116Z,-423.83
2019-02-17T10:10:06.386Z,-426.05
2019-02-17T10:11:06.637Z,-430.53
2019-02-17T10:12:06.925Z,-427.57
2019-02-17T10:13:07.307Z,-428.64
2019-02-17T10:14:07.292Z,-429.99
2019-02-17T10:15:07.562Z,-427.46
2019-02-17T10:16:07.834Z,-426.89
2019-02-17T10:17:08.060Z,-425.38
2019-02-17T10:18:08.280Z,-427.28
2019-02-17T10:19:08.498Z,-425.90
2019-02-17T10:20:08.777Z,-426.59
2019-02-17T10:21:08.977Z,-426.85
2019-02-17T10:22:09.194Z,-428.80
2019-02-17T10:23:09.453Z,-425.60
2019-02-17T10:24:09.679Z,-424.56
2019-02-17T10:25:09.935Z,-425.84
2019-02-17T10:26:10.173Z,-424.49
2019-02-17T10:27:10.383Z,-428.61
2019-02-17T10:28:10.701Z,-427.22
2019-02-17T10:29:10.929Z,-427.36
2019-02-17T10:30:11.135Z,-425.32
2019-02-17T10:31:11.828Z,-424.16
2019-02-17T10:32:11.593Z,-425.22
2019-02-17T10:33:11.849Z,-428.91
2019-02-17T10:34:12.066Z,-428.46
2019-02-17T10:35:12.326Z,-423.60
2019-02-17T10:36:12.583Z,-424.03
2019-02-17T10:37:12.864Z,-426.88
2019-02-17T10:38:13.031Z,-425.62
2019-02-17T10:39:13.252Z,-425.49
2019-02-17T10:40:13.500Z,-425.93
2019-02-17T10:41:13.745Z,-426.17
2019-02-17T10:42:13.948Z,-420.53
2019-02-17T10:43:14.224Z,-421.11
2019-02-17T10:44:14.444Z,-422.82
2019-02-17T10:45:14.794Z,-424.68
2019-02-17T10:46:14.947Z,-425.99
2019-02-17T10:47:15.129Z,-424.67
2019-02-17T10:48:15.401Z,-427.71
2019-02-17T10:49:15.621Z,-423.74
2019-02-17T10:50:15.866Z,-421.80
2019-02-17T10:51:16.149Z,-424.14
2019-02-17T10:52:16.331Z,-421.79
2019-02-17T10:53:16.600Z,-426.94
2019-02-17T10:54:16.791Z,-426.65
2019-02-17T10:55:17.051Z,-424.39
2019-02-17T10:56:17.294Z,-425.50
2019-02-17T10:57:17.507Z,-429.48
2019-02-17T10:58:17.770Z,-427.41
2019-02-17T10:59:17.960Z,-427.25
2019-02-17T11:00:18.216Z,-428.91
2019-02-17T11:01:18.550Z,-426.35
2019-02-17T11:02:18.711Z,-425.68
2019-02-17T11:03:18.987Z,-424.59
2019-02-17T11:04:19.185Z,-423.76
2019-02-17T11:05:19.413Z,-419.14
2019-02-17T11:06:19.680Z,-418.31
2019-02-17T11:07:19.918Z,-425.91
2019-02-17T11:08:20.178Z,-424.27
2019-02-17T11:09:20.417Z,-428.39
2019-02-17T11:10:20.739Z,-427.05
2019-02-17T11:11:20.887Z,-428.22
2019-02-17T11:12:23.448Z,-428.10
2019-02-17T11:13:21.374Z,-429.13
2019-02-17T11:14:21.594Z,-429.15
2019-02-17T11:15:21.831Z,-434.04
2019-02-17T11:16:22.060Z,-427.24
2019-02-17T11:17:22.314Z,-429.42
2019-02-17T11:18:22.680Z,-426.37
2019-02-17T11:19:22.781Z,-430.79
2019-02-17T11:20:23.008Z,-429.13
2019-02-17T11:21:28.048Z,-427.17
2019-02-17T11:22:23.558Z,-430.11
2019-02-17T11:23:23.757Z,-428.73
2019-02-17T11:24:29.068Z,-430.51
2019-02-17T11:25:24.219Z,-428.09
2019-02-17T11:26:24.550Z,-428.37
2019-02-17T11:27:24.680Z,-430.05
2019-02-17T11:28:24.936Z,-434.27
2019-02-17T11:29:25.157Z,-429.36
2019-02-17T11:30:25.394Z,-432.14
2019-02-17T11:31:25.650Z,-434.88
2019-02-17T11:32:25.882Z,-432.70
2019-02-17T11:33:26.164Z,-433.25
2019-02-17T11:34:26.429Z,-432.16
2019-02-17T11:35:26.593Z,-432.73
2019-02-17T11:36:26.857Z,-430.98
2019-02-17T11:37:27.086Z,-436.17
2019-02-17T11:38:27.317Z,-432.38
2019-02-17T11:39:27.552Z,-462.13
2019-02-17T11:40:27.804Z,-458.24
2019-02-17T11:41:28.062Z,-458.71
2019-02-17T11:42:28.393Z,-454.24
2019-02-17T11:43:28.537Z,-457.62
2019-02-17T11:44:28.755Z,-452.34
2019-02-17T11:45:29.007Z,-453.26
2019-02-17T11:46:29.262Z,-452.92
2019-02-17T11:47:29.491Z,-449.82
2019-02-17T11:48:29.736Z,-454.85
2019-02-17T11:49:29.955Z,-458.78
2019-02-17T11:50:30.219Z,-457.96
2019-02-17T11:51:30.544Z,-456.04
2019-02-17T11:52:30.912Z,-454.95
2019-02-17T11:53:30.921Z,-457.63
2019-02-17T11:54:31.150Z,-452.08
2019-02-17T11:55:31.380Z,-449.64
2019-02-17T11:56:31.654Z,-454.48
2019-02-17T11:57:31.882Z,-459.40
2019-02-17T11:58:32.140Z,-455.53
2019-02-17T11:59:32.483Z,-454.75
2019-02-17T12:00:32.571Z,-458.94
2019-02-17T12:01:32.839Z,-458.04
2019-02-17T12:02:33.074Z,-456.76
2019-02-17T12:03:33.319Z,-456.34
2019-02-17T12:04:33.547Z,-455.10
2019-02-17T12:05:33.782Z,-452.94
2019-02-17T12:06:34.025Z,-453.33
2019-02-17T12:07:34.359Z,-454.75
2019-02-17T12:08:34.518Z,-456.03